Lulu Pass Weather Station

This weather station provides temperature, relative humidity (RH), wind speed, gust or max wind speed, and wind direction at 10014ft near Lulu Pass at the head of Fisher Creek. This data can be used with temperature and precipitation data from the Fisher Creek SNOTEL site.

This weather station was purchased by the Friends of the Avalanche Center.

If the data has not been updated recently you can view it directly on datagarrison.com

Elevation
10014ft
Jump to table bottom
Date Time Temperature
deg F
RH, % Wind Speed Wind Gust Wind Direction
04/03/20 21:00 8.8 93 12 27 SW - 220
04/03/20 20:00 8.4 93 10 21 SW - 220
04/03/20 19:00 8.4 93 9 23 SW - 244
04/03/20 18:00 8.4 93 10 26 W - 251
04/03/20 17:00 8.8 93 11 27 SW - 239
04/03/20 16:00 9.8 92 10 24 SW - 243
04/03/20 15:00 10.9 92 10 20 W - 263
04/03/20 14:00 10.8 92 5 12 W - 264
04/03/20 13:00 9.8 91 7 17 SW - 230
04/03/20 12:00 9.8 91 7 16 SW - 247
04/03/20 11:00 9.5 91 8 23 SW - 206
04/03/20 10:00 7.6 91 12 24 SW - 205
04/03/20 09:00 7.1 91 10 18 SW - 216
04/03/20 08:00 5.8 91 10 21 SW - 209
04/03/20 07:00 5.5 91 3 11 W - 256
04/03/20 06:00 3.3 91 5 13 W - 261
04/03/20 05:00 2.6 91 5 14 SW - 240
04/03/20 04:00 2.4 91 5 13 W - 251
04/03/20 03:00 2.8 91 6 17 SW - 239
04/03/20 02:00 3.4 91 5 13 SW - 233
04/03/20 01:00 3.5 91 6 13 SW - 240
04/03/20 00:00 3.1 91 4 10 W - 256
04/02/20 23:00 3.3 91 5 12 SW - 226
04/02/20 22:00 3.1 92 5 10 SW - 218
04/02/20 21:00 2.3 91 3 7 W - 270
04/02/20 20:00 1.6 91 4 8 NW - 324
04/02/20 19:00 2.8 91 6 11 NW - 329
04/02/20 18:00 3.1 91 10 14 NW - 336
04/02/20 17:00 5.5 91 12 17 NW - 331
04/02/20 16:00 6.0 92 9 20 NW - 316
04/02/20 15:00 7.8 92 0 0 NW - 312
04/02/20 14:00 7.9 92 0 0 NW - 317
04/02/20 13:00 7.0 93 0 0 NW - 320
04/02/20 12:00 6.8 92 0 0 NW - 326
04/02/20 11:00 5.7 92 0 0 NW - 305
04/02/20 10:00 7.7 92 0 3 W - 288
04/02/20 09:00 15.4 92 1 4 N - 11
04/02/20 08:00 3.8 91 3 5 N - 7
04/02/20 07:00 2.8 90 3 7 S - 161
04/02/20 06:00 -2.6 89 7 10 SE - 135
04/02/20 05:00 -2.1 90 5 9 SE - 115
04/02/20 04:00 -0.1 90 3 7 E - 111
04/02/20 03:00 -0.2 90 5 10 SE - 131
04/02/20 02:00 -0.7 90 5 10 SE - 125
04/02/20 01:00 0.2 90 4 10 SE - 128
04/02/20 00:00 0.9 91 5 16 E - 94
04/01/20 23:00 1.2 91 4 10 E - 104
04/01/20 22:00 2.1 91 5 12 E - 102
04/01/20 21:00 2.6 91 5 10 SE - 124
04/01/20 20:00 3.4 92 6 12 E - 83